createdAt,value
2023-01-27T00:02:38.208Z,6.50
2023-01-27T00:05:24.171Z,6.78
2023-01-27T00:08:09.543Z,7.65
2023-01-27T00:11:34.767Z,6.65
2023-01-27T00:14:20.017Z,6.90
2023-01-27T00:17:05.418Z,7.28
2023-01-27T00:19:50.995Z,6.47
2023-01-27T00:22:54.849Z,6.70
2023-01-27T00:25:41.878Z,6.95
2023-01-27T00:28:31.384Z,6.57
2023-01-27T00:31:36.341Z,6.65
2023-01-27T00:34:21.837Z,6.30
2023-01-27T00:37:08.055Z,6.22
2023-01-27T00:39:53.906Z,5.95
2023-01-27T00:42:39.843Z,5.90
2023-01-27T00:45:44.060Z,5.70
2023-01-27T00:48:29.666Z,4.93
2023-01-27T00:51:17.871Z,5.65
2023-01-27T00:54:06.804Z,6.30
2023-01-27T00:56:52.519Z,5.63
2023-01-27T00:59:37.906Z,5.35
2023-01-27T01:02:23.248Z,6.07
2023-01-27T01:05:09.753Z,5.40
2023-01-27T01:07:55.360Z,5.82
2023-01-27T01:10:43.978Z,4.82
2023-01-27T01:13:29.755Z,5.40
2023-01-27T01:16:18.280Z,5.32
2023-01-27T01:19:04.480Z,5.00
2023-01-27T01:21:50.064Z,5.07
2023-01-27T01:24:35.662Z,4.43
2023-01-27T01:27:21.282Z,4.78
2023-01-27T01:30:07.352Z,5.15
2023-01-27T01:32:56.739Z,4.78
2023-01-27T01:35:42.613Z,3.63
2023-01-27T01:38:28.229Z,3.60
2023-01-27T01:41:20.676Z,3.97
2023-01-27T01:44:43.507Z,2.83
2023-01-27T01:47:28.620Z,3.42
2023-01-27T01:50:14.743Z,3.92
2023-01-27T01:53:03.612Z,3.90
2023-01-27T01:55:49.385Z,4.20
2023-01-27T01:58:35.808Z,3.92
2023-01-27T02:01:21.436Z,4.47
2023-01-27T02:04:12.692Z,5.50
2023-01-27T02:07:30.930Z,5.40
2023-01-27T02:10:17.329Z,5.40
2023-01-27T02:13:03.341Z,5.18
2023-01-27T02:15:50.494Z,5.47
2023-01-27T02:18:36.618Z,5.22
2023-01-27T02:21:21.978Z,5.05
2023-01-27T02:24:12.324Z,5.25
2023-01-27T02:26:58.026Z,4.90
2023-01-27T02:29:43.709Z,6.15
2023-01-27T02:32:29.190Z,4.90
2023-01-27T02:35:21.443Z,5.07
2023-01-27T02:38:07.579Z,5.28
2023-01-27T02:40:54.747Z,4.45
2023-01-27T02:43:40.445Z,4.88
2023-01-27T02:46:26.029Z,5.18
2023-01-27T02:49:12.237Z,4.95
2023-01-27T02:51:57.429Z,5.22
2023-01-27T02:54:42.866Z,5.40
2023-01-27T02:57:28.501Z,5.03
2023-01-27T03:00:14.119Z,5.05
2023-01-27T03:02:59.546Z,6.03
2023-01-27T03:05:46.320Z,5.45
2023-01-27T03:08:31.755Z,5.40
2023-01-27T03:11:40.046Z,5.57
2023-01-27T03:14:44.194Z,4.78
2023-01-27T03:17:48.259Z,5.78
2023-01-27T03:20:33.896Z,5.95
2023-01-27T03:23:19.849Z,5.47
2023-01-27T03:26:10.318Z,5.50
2023-01-27T03:29:15.914Z,5.30
2023-01-27T03:32:01.316Z,4.75
2023-01-27T03:34:46.997Z,6.40
2023-01-27T03:37:50.860Z,5.38
2023-01-27T03:40:54.597Z,5.38
2023-01-27T03:43:58.454Z,5.45
2023-01-27T03:46:44.531Z,5.55
2023-01-27T03:49:30.193Z,5.60
2023-01-27T03:52:15.981Z,5.22
2023-01-27T03:59:42.449Z,5.72
2023-01-27T04:02:46.384Z,5.68
2023-01-27T04:08:35.855Z,5.72
2023-01-27T04:11:40.861Z,6.65
2023-01-27T04:14:30.169Z,5.93
2023-01-27T04:17:17.762Z,7.10
2023-01-27T04:20:03.783Z,6.55
2023-01-27T04:22:49.200Z,7.65
2023-01-27T04:25:34.520Z,8.40
2023-01-27T04:28:37.256Z,8.25
2023-01-27T04:31:25.472Z,8.15
2023-01-27T04:34:12.452Z,7.38
2023-01-27T04:36:58.705Z,8.15
2023-01-27T04:39:45.807Z,9.90
2023-01-27T04:42:31.108Z,8.88
2023-01-27T04:45:16.657Z,8.95
2023-01-27T04:48:02.620Z,9.43
2023-01-27T04:50:48.073Z,7.97
2023-01-27T04:53:33.528Z,8.15
2023-01-27T04:56:32.516Z,9.18
2023-01-27T04:59:18.221Z,8.98
2023-01-27T05:02:04.721Z,9.35
2023-01-27T05:04:50.195Z,9.32
2023-01-27T05:07:35.897Z,8.43
2023-01-27T05:10:21.532Z,8.55
2023-01-27T05:13:07.040Z,8.23
2023-01-27T05:15:52.585Z,8.85
2023-01-27T05:18:39.021Z,7.25
2023-01-27T05:21:28.320Z,8.63
2023-01-27T05:24:13.833Z,8.85
2023-01-27T05:26:59.200Z,8.23
2023-01-27T05:29:44.751Z,7.72
2023-01-27T05:32:30.285Z,7.43
2023-01-27T05:35:15.895Z,8.60
2023-01-27T05:38:01.651Z,7.78
2023-01-27T05:40:47.106Z,7.55
2023-01-27T05:43:34.438Z,8.43
2023-01-27T05:46:22.129Z,7.75
2023-01-27T05:49:09.348Z,6.82
2023-01-27T05:51:55.251Z,7.00
2023-01-27T05:54:40.371Z,7.30
2023-01-27T05:57:25.985Z,7.10
2023-01-27T06:00:12.138Z,5.65
2023-01-27T06:02:57.594Z,7.82
2023-01-27T06:05:50.808Z,6.38
2023-01-27T06:08:36.792Z,6.75
2023-01-27T06:11:24.419Z,6.50
2023-01-27T06:14:10.054Z,6.30
2023-01-27T06:16:55.603Z,6.07
2023-01-27T06:19:41.214Z,6.10
2023-01-27T06:22:27.073Z,6.03
2023-01-27T06:25:13.015Z,6.63
2023-01-27T06:27:58.601Z,5.50
2023-01-27T06:30:44.700Z,7.05
2023-01-27T06:33:30.571Z,6.53
2023-01-27T06:36:18.720Z,5.47
2023-01-27T06:39:04.415Z,5.22
2023-01-27T06:41:50.320Z,5.13
2023-01-27T06:44:35.947Z,4.88
2023-01-27T06:47:21.621Z,5.40
2023-01-27T06:50:09.416Z,6.18
2023-01-27T06:53:01.513Z,4.80
2023-01-27T06:55:47.018Z,4.53
2023-01-27T06:58:33.042Z,4.57
2023-01-27T07:01:18.406Z,4.88
2023-01-27T07:04:04.034Z,4.70
2023-01-27T07:06:49.634Z,4.43
2023-01-27T07:09:50.618Z,5.68
2023-01-27T07:12:38.261Z,4.43
2023-01-27T07:15:23.840Z,4.20
2023-01-27T07:18:11.386Z,4.22
2023-01-27T07:20:57.449Z,3.42
2023-01-27T07:23:44.054Z,3.58
2023-01-27T07:26:29.895Z,4.55
2023-01-27T07:29:15.566Z,4.47
2023-01-27T07:32:01.126Z,4.50
2023-01-27T07:34:46.747Z,5.03
2023-01-27T07:37:33.763Z,3.80
2023-01-27T07:40:19.665Z,4.93
2023-01-27T07:43:05.131Z,3.97
2023-01-27T07:45:54.657Z,3.50
2023-01-27T07:48:40.350Z,3.30
2023-01-27T07:51:26.106Z,3.30
2023-01-27T07:54:11.928Z,2.80
2023-01-27T07:57:00.395Z,2.60
2023-01-27T07:59:45.830Z,2.72
2023-01-27T08:02:31.649Z,3.50
2023-01-27T08:05:17.088Z,3.22
2023-01-27T08:08:04.507Z,3.03
2023-01-27T08:10:51.464Z,3.00
2023-01-27T08:13:37.148Z,3.40
2023-01-27T08:16:22.793Z,3.20
2023-01-27T08:19:08.227Z,2.65
2023-01-27T08:21:53.485Z,3.13
2023-01-27T08:24:38.712Z,3.80
2023-01-27T08:27:24.339Z,2.90
2023-01-27T08:30:10.325Z,5.55
2023-01-27T08:32:55.635Z,3.22
2023-01-27T08:35:44.693Z,3.25
2023-01-27T08:38:30.207Z,4.03
2023-01-27T08:41:21.999Z,2.92
2023-01-27T08:44:07.704Z,3.20
2023-01-27T08:46:52.993Z,4.35
2023-01-27T08:49:39.609Z,3.50
2023-01-27T08:52:27.629Z,2.55
2023-01-27T08:55:13.087Z,2.97
2023-01-27T08:57:58.939Z,2.88
2023-01-27T09:00:45.002Z,3.28
2023-01-27T09:03:34.716Z,4.75
2023-01-27T09:06:21.764Z,6.90
2023-01-27T09:09:11.833Z,3.47
2023-01-27T09:11:57.846Z,3.95
2023-01-27T09:14:43.558Z,4.70
2023-01-27T09:17:29.028Z,4.05
2023-01-27T09:20:15.306Z,3.53
2023-01-27T09:23:01.272Z,3.72
2023-01-27T09:25:47.056Z,3.75
2023-01-27T09:28:32.839Z,5.07
2023-01-27T09:31:18.464Z,3.80
2023-01-27T09:34:04.683Z,4.05
2023-01-27T09:36:59.468Z,3.75
2023-01-27T09:39:51.199Z,3.65
2023-01-27T09:42:59.928Z,4.90
2023-01-27T09:46:13.146Z,3.67
2023-01-27T09:48:58.903Z,3.65
2023-01-27T09:52:02.413Z,3.83
2023-01-27T09:55:14.778Z,3.30
2023-01-27T09:58:06.678Z,3.35
2023-01-27T10:01:05.181Z,5.15
2023-01-27T10:04:23.484Z,4.78
2023-01-27T10:07:19.311Z,3.45
2023-01-27T10:10:15.118Z,3.38
2023-01-27T10:13:40.886Z,2.80
2023-01-27T10:16:42.599Z,3.88
2023-01-27T10:19:59.590Z,2.72
2023-01-27T10:23:23.236Z,3.00
2023-01-27T10:26:36.643Z,3.08
2023-01-27T10:29:35.987Z,2.92
2023-01-27T10:32:57.714Z,2.88
2023-01-27T10:35:53.354Z,3.97
2023-01-27T10:39:01.666Z,2.47
2023-01-27T10:42:11.125Z,2.65
2023-01-27T10:45:29.014Z,2.67
2023-01-27T10:48:54.401Z,2.90
2023-01-27T10:51:49.721Z,3.83
2023-01-27T10:54:44.718Z,3.35
2023-01-27T10:57:35.322Z,2.97
2023-01-27T11:01:19.263Z,2.35
2023-01-27T11:04:16.446Z,2.70
2023-01-27T11:07:05.513Z,2.30
2023-01-27T11:10:06.121Z,2.78
2023-01-27T11:12:56.065Z,2.42
2023-01-27T11:15:41.695Z,2.70
2023-01-27T11:18:29.891Z,2.22
2023-01-27T11:21:21.866Z,2.22
2023-01-27T11:24:44.837Z,2.60
2023-01-27T11:27:49.863Z,2.95
2023-01-27T11:30:51.703Z,1.83
2023-01-27T11:33:59.140Z,2.72
2023-01-27T11:36:45.313Z,2.20
2023-01-27T11:39:32.869Z,1.90
2023-01-27T11:42:18.854Z,2.55
2023-01-27T11:45:06.641Z,2.30
2023-01-27T11:47:57.092Z,2.05
2023-01-27T11:50:43.994Z,2.40
2023-01-27T11:53:39.526Z,1.80
2023-01-27T11:56:26.756Z,2.70
2023-01-27T11:59:29.040Z,1.95
2023-01-27T12:02:35.466Z,1.80
2023-01-27T12:05:42.778Z,3.85
2023-01-27T12:08:47.245Z,1.50
2023-01-27T12:11:34.253Z,1.40
2023-01-27T12:14:24.874Z,1.70
2023-01-27T12:17:23.330Z,1.95
2023-01-27T12:20:29.811Z,1.50
2023-01-27T12:23:33.165Z,1.70
2023-01-27T12:27:00.245Z,1.60
2023-01-27T12:30:54.904Z,1.48
2023-01-27T12:33:51.083Z,1.50
2023-01-27T12:36:43.297Z,1.38
2023-01-27T12:39:37.675Z,1.98
2023-01-27T12:42:45.701Z,2.63
2023-01-27T12:45:43.506Z,2.25
2023-01-27T12:48:32.754Z,1.63
2023-01-27T12:51:22.492Z,2.15
2023-01-27T12:54:22.917Z,2.42
2023-01-27T12:57:16.485Z,1.60
2023-01-27T13:00:03.998Z,2.17
2023-01-27T13:02:52.322Z,1.67
2023-01-27T13:05:44.254Z,1.48
2023-01-27T13:08:33.644Z,1.85
2023-01-27T13:11:29.734Z,2.08
2023-01-27T13:14:18.206Z,2.17
2023-01-27T13:17:03.885Z,1.85
2023-01-27T13:19:54.501Z,1.73
2023-01-27T13:22:47.816Z,1.50
2023-01-27T13:25:41.067Z,1.65
2023-01-27T13:28:39.682Z,2.00
2023-01-27T13:31:40.428Z,1.52
2023-01-27T13:34:55.646Z,1.92
2023-01-27T13:38:15.612Z,2.53
2023-01-27T13:41:21.112Z,2.47
2023-01-27T13:44:43.159Z,2.58
2023-01-27T13:48:13.486Z,2.80
2023-01-27T13:51:21.117Z,1.75
2023-01-27T13:54:26.540Z,2.38
2023-01-27T13:58:06.308Z,1.42
2023-01-27T14:01:14.828Z,1.65
2023-01-27T14:04:23.775Z,1.90
2023-01-27T14:07:09.014Z,2.88
2023-01-27T14:10:06.671Z,1.50
2023-01-27T14:13:21.268Z,1.50
2023-01-27T14:16:09.662Z,1.40
2023-01-27T14:19:22.091Z,1.75
2023-01-27T14:22:07.917Z,1.75
2023-01-27T14:25:09.537Z,1.80
2023-01-27T14:28:10.757Z,2.13
2023-01-27T14:31:06.619Z,2.03
2023-01-27T14:34:09.789Z,1.92
2023-01-27T14:37:13.722Z,1.70
2023-01-27T14:43:04.570Z,1.52
2023-01-27T14:45:58.517Z,2.17
2023-01-27T14:49:05.877Z,2.45
2023-01-27T14:52:08.458Z,1.80
2023-01-27T14:55:03.861Z,1.67
2023-01-27T14:57:56.722Z,2.30
2023-01-27T15:01:14.721Z,1.38
2023-01-27T15:04:05.989Z,2.20
2023-01-27T15:07:25.112Z,1.95
2023-01-27T15:10:24.492Z,1.40
2023-01-27T15:13:16.888Z,1.80
2023-01-27T15:16:16.712Z,1.20
2023-01-27T15:19:25.536Z,1.67
2023-01-27T15:22:34.873Z,2.65
2023-01-27T15:25:55.014Z,1.65
2023-01-27T15:28:42.524Z,2.03
2023-01-27T15:31:30.196Z,1.38
2023-01-27T15:34:21.849Z,1.98
2023-01-27T15:37:24.103Z,2.03
2023-01-27T15:40:16.705Z,1.40
2023-01-27T15:43:05.210Z,1.80
2023-01-27T15:45:55.221Z,1.83
2023-01-27T15:48:41.103Z,2.17
2023-01-27T15:51:27.972Z,1.95
2023-01-27T15:54:24.254Z,1.45
2023-01-27T15:57:29.851Z,1.92
2023-01-27T16:00:32.022Z,1.45
2023-01-27T16:03:45.112Z,1.77
2023-01-27T16:06:31.099Z,1.60
2023-01-27T16:09:38.492Z,1.92
2023-01-27T16:12:24.079Z,2.38
2023-01-27T16:15:16.044Z,2.35
2023-01-27T16:18:07.701Z,2.10
2023-01-27T16:20:59.955Z,2.35
2023-01-27T16:23:54.739Z,2.95
2023-01-27T16:26:52.446Z,2.63
2023-01-27T16:29:57.816Z,2.65
2023-01-27T16:32:58.153Z,2.63
2023-01-27T16:35:49.447Z,3.55
2023-01-27T16:38:41.069Z,2.88
2023-01-27T16:41:36.161Z,2.03
2023-01-27T16:44:29.978Z,2.38
2023-01-27T16:47:28.745Z,2.28
2023-01-27T16:50:34.139Z,2.22
2023-01-27T16:53:22.200Z,2.05
2023-01-27T16:56:21.888Z,1.92
2023-01-27T16:59:13.085Z,1.48
2023-01-27T17:02:02.756Z,2.13
2023-01-27T17:04:52.382Z,2.05
2023-01-27T17:07:37.721Z,1.90
2023-01-27T17:10:34.405Z,3.28
2023-01-27T17:13:33.095Z,1.90
2023-01-27T17:16:43.401Z,1.65
2023-01-27T17:19:32.406Z,2.30
2023-01-27T17:22:23.160Z,2.72
2023-01-27T17:25:24.598Z,1.60
2023-01-27T17:28:20.295Z,2.60
2023-01-27T17:31:08.240Z,2.50
2023-01-27T17:34:01.036Z,2.22
2023-01-27T17:37:05.894Z,3.15
2023-01-27T17:39:57.100Z,2.40
2023-01-27T17:42:43.453Z,3.15
2023-01-27T17:45:34.471Z,3.10
2023-01-27T17:48:20.316Z,5.47
2023-01-27T17:51:06.076Z,3.28
2023-01-27T17:53:52.907Z,3.15
2023-01-27T17:56:38.092Z,3.53
2023-01-27T17:59:26.664Z,3.85
2023-01-27T18:02:27.939Z,4.05
2023-01-27T18:05:29.362Z,3.60
2023-01-27T18:08:19.883Z,3.40
2023-01-27T18:11:32.813Z,3.88
2023-01-27T18:14:21.001Z,3.45
2023-01-27T18:17:37.478Z,3.47
2023-01-27T18:20:36.310Z,4.15
2023-01-27T18:23:31.277Z,3.65
2023-01-27T18:26:26.545Z,3.30
2023-01-27T18:29:36.363Z,4.03
2023-01-27T18:32:26.391Z,4.05
2023-01-27T18:35:21.343Z,5.25
2023-01-27T18:38:28.689Z,4.63
2023-01-27T18:41:29.099Z,5.45
2023-01-27T18:44:14.665Z,4.93
2023-01-27T18:47:20.506Z,5.40
2023-01-27T18:50:21.807Z,6.22
2023-01-27T18:53:14.154Z,5.25
2023-01-27T18:56:02.175Z,3.85
2023-01-27T18:58:47.782Z,5.32
2023-01-27T19:01:35.138Z,4.43
2023-01-27T19:04:21.035Z,5.55
2023-01-27T19:07:15.806Z,5.75
2023-01-27T19:10:01.384Z,5.55
2023-01-27T19:12:46.919Z,5.60
2023-01-27T19:15:35.068Z,6.75
2023-01-27T19:18:27.985Z,6.55
2023-01-27T19:21:15.686Z,7.27
2023-01-27T19:24:01.602Z,7.30
2023-01-27T19:26:47.614Z,7.20
2023-01-27T19:29:33.087Z,7.15
2023-01-27T19:32:18.603Z,6.90
2023-01-27T19:35:04.224Z,9.93
2023-01-27T19:37:50.596Z,6.72
2023-01-27T19:40:36.177Z,7.75
2023-01-27T19:43:21.819Z,6.93
2023-01-27T19:46:15.107Z,6.68
2023-01-27T19:51:46.378Z,6.13
2023-01-27T19:54:31.765Z,6.85
2023-01-27T19:57:17.862Z,6.40
2023-01-27T20:00:05.361Z,6.93
2023-01-27T20:02:51.346Z,6.90
2023-01-27T20:05:36.853Z,8.90
2023-01-27T20:08:23.009Z,6.28
2023-01-27T20:11:36.855Z,7.90
2023-01-27T20:14:26.129Z,8.13
2023-01-27T20:17:11.698Z,8.15
2023-01-27T20:19:57.201Z,7.78
2023-01-27T20:22:43.149Z,7.22
2023-01-27T20:25:29.202Z,6.85
2023-01-27T20:28:14.487Z,7.70
2023-01-27T20:31:00.409Z,7.38
2023-01-27T20:33:50.301Z,7.65
2023-01-27T20:36:36.142Z,8.02
2023-01-27T20:39:21.608Z,8.02
2023-01-27T20:42:07.552Z,7.75
2023-01-27T20:44:54.160Z,7.57
2023-01-27T20:47:39.875Z,7.68
2023-01-27T20:50:26.272Z,9.52
2023-01-27T20:53:11.744Z,6.60
2023-01-27T20:55:58.359Z,7.18
2023-01-27T20:58:44.370Z,7.07
2023-01-27T21:01:30.091Z,5.95
2023-01-27T21:04:15.439Z,7.00
2023-01-27T21:07:00.987Z,5.88
2023-01-27T21:09:46.780Z,7.28
2023-01-27T21:12:32.273Z,9.23
2023-01-27T21:15:17.675Z,8.88
2023-01-27T21:18:03.177Z,9.18
2023-01-27T21:20:51.079Z,7.50
2023-01-27T21:23:36.583Z,7.95
2023-01-27T21:26:22.561Z,8.10
2023-01-27T21:29:11.572Z,8.27
2023-01-27T21:31:57.713Z,6.35
2023-01-27T21:34:43.230Z,7.30
2023-01-27T21:37:29.078Z,6.78
2023-01-27T21:40:14.601Z,8.82
2023-01-27T21:43:18.384Z,8.20
2023-01-27T21:46:04.107Z,8.55
2023-01-27T21:48:49.366Z,8.18
2023-01-27T21:51:34.826Z,8.07
2023-01-27T21:54:20.759Z,7.45
2023-01-27T21:57:05.965Z,6.60
2023-01-27T21:59:51.817Z,8.30
2023-01-27T22:02:37.898Z,6.88
2023-01-27T22:05:24.317Z,8.48
2023-01-27T22:08:11.958Z,6.35
2023-01-27T22:11:03.231Z,8.07
2023-01-27T22:13:48.825Z,7.18
2023-01-27T22:16:34.344Z,7.82
2023-01-27T22:19:19.933Z,7.30
2023-01-27T22:22:07.530Z,8.00
2023-01-27T22:24:53.238Z,5.88
2023-01-27T22:27:41.774Z,6.32
2023-01-27T22:30:26.950Z,5.30
2023-01-27T22:33:13.466Z,6.63
2023-01-27T22:36:04.118Z,6.43
2023-01-27T22:38:49.475Z,6.43
2023-01-27T22:41:35.370Z,8.32
2023-01-27T22:44:21.210Z,8.70
2023-01-27T22:47:06.780Z,10.27
2023-01-27T22:49:52.304Z,8.50
2023-01-27T22:52:38.867Z,9.00
2023-01-27T22:55:24.218Z,8.75
2023-01-27T22:58:09.731Z,8.32
2023-01-27T23:00:56.052Z,9.30
2023-01-27T23:03:41.780Z,8.13
2023-01-27T23:06:27.358Z,8.90
2023-01-27T23:09:13.632Z,8.32
2023-01-27T23:11:59.314Z,9.02
2023-01-27T23:14:44.819Z,8.77
2023-01-27T23:17:30.269Z,8.35
2023-01-27T23:20:15.953Z,7.50
2023-01-27T23:23:01.367Z,7.70
2023-01-27T23:25:47.874Z,8.82
2023-01-27T23:28:33.725Z,8.70
2023-01-27T23:31:19.317Z,8.30
2023-01-27T23:34:04.712Z,9.30
2023-01-27T23:36:50.169Z,8.60
2023-01-27T23:39:35.784Z,9.70
2023-01-27T23:42:21.366Z,9.57
2023-01-27T23:45:07.315Z,9.20
2023-01-27T23:47:53.112Z,8.98
2023-01-27T23:50:39.150Z,7.75
2023-01-27T23:53:39.188Z,8.55
2023-01-27T23:56:29.225Z,7.50
2023-01-27T23:59:15.250Z,8.07
